Terminal Aerodrome Forecast
Issued by NWS

Home | Current Version | Previous Version | Text Only | Print | Product List | Glossary On
Versions: 1 2 3 4 5 6 7 8 9 10 11 12 13 14 15 16 17 18 19 20 21 22 23 24 25 26 27 28 29 30 31 32 33 34 35 36 37
753
FTUS41 KGYX 072001 AAB
TAFLEB
TAF AMD
KLEB 072001Z 0720/0818 00000KT P6SM BKN008 OVC015
     FM072200 22004KT P6SM OVC015
     FM080000 24004KT P6SM BKN025
     FM080300 27005KT P6SM BKN040=

USA.gov is the U.S. government's official web portal to all federal, state and local government web resources and services.